Time;durP1;ratioP1;P1;durP2;ratioP2;P2;SDS_P1;SDS_P2;PMS_P1;PMS_P2;Temp;Humidity;BMP_temperature;BMP_pressure;BME280_temperature;BME280_humidity;BME280_pressure;Samples;Min_cycle;Max_cycle;Signal;HPM_P1;HPM_P2
2023/04/10 00:01:14;;;;;;;;;;;;;;;13.06;60.03;102012.64;110447;1276;22405;-50
2023/04/10 00:04:01;;;;;;;;;;;;;;;13.01;60.24;102008.14;110156;1276;22455;-49
2023/04/10 00:06:33;;;;;;;;;;;;;;;12.96;60.34;102010.30;110415;1276;23211;-50
2023/04/10 00:09:01;;;;;;;;;;;;;;;12.93;60.51;102008.07;110214;1272;22634;-49
2023/04/10 00:11:30;;;;;;;;;;;;;;;12.93;60.54;102008.77;110420;1276;22421;-50
2023/04/10 00:14:00;;;;;;;;;;;;;;;12.94;60.68;102006.34;110415;1269;22385;-49
2023/04/10 00:16:30;;;;;;;;;;;;;;;12.93;60.85;102008.42;109372;1276;1003203;-50
2023/04/10 00:19:00;;;;;;;;;;;;;;;12.93;60.89;102003.36;110390;1270;23413;-49
2023/04/10 00:21:40;;;;;;;;;;;;;;;12.92;61.00;102002.85;109718;1268;1002479;-50
2023/04/10 00:24:10;;;;;;;;;;;;;;;12.91;61.12;102004.27;110467;1268;22452;-50
2023/04/10 00:26:45;;;;;;;;;;;;;;;12.89;61.42;102000.63;110440;1276;22461;-50
2023/04/10 00:29:13;;;;;;;;;;;;;;;12.87;61.64;101996.13;110468;1276;22518;-49
2023/04/10 00:31:48;;;;;;;;;;;;;;;12.86;61.68;102002.74;110483;1268;22444;-50
2023/04/10 00:34:17;;;;;;;;;;;;;;;12.86;61.77;102004.48;110453;1268;22424;-51
2023/04/10 00:36:46;;;;;;;;;;;;;;;12.85;61.99;102003.80;110221;1271;22445;-49
2023/04/10 00:39:14;;;;;;;;;;;;;;;12.82;62.33;102000.73;110477;1268;22449;-50
2023/04/10 00:41:47;;;;;;;;;;;;;;;12.81;62.57;102000.55;110479;1272;23229;-50
2023/04/10 00:44:16;;;;;;;;;;;;;;;12.80;62.72;101998.48;110445;1276;22489;-50
2023/04/10 00:46:44;;;;;;;;;;;;;;;12.81;62.78;101995.49;110442;1268;22421;-49
2023/04/10 00:49:13;;;;;;;;;;;;;;;12.80;62.90;101998.98;110460;1268;22501;-50
2023/04/10 00:51:42;;;;;;;;;;;;;;;12.80;63.01;101997.25;109604;1277;1006262;-50
2023/04/10 00:54:12;;;;;;;;;;;;;;;12.80;63.16;101993.60;109508;1271;1002210;-50
2023/04/10 00:56:40;;;;;;;;;;;;;;;12.79;63.56;101995.52;110451;1276;22391;-50
2023/04/10 00:59:08;;;;;;;;;;;;;;;12.79;63.99;101989.95;110416;1270;22394;-50
2023/04/10 01:01:36;;;;;;;;;;;;;;;12.79;64.03;101989.42;110435;1276;22462;-50
2023/04/10 01:04:12;;;;;;;;;;;;;;;12.78;63.75;101988.91;110451;1269;22427;-50
2023/04/10 01:06:43;;;;;;;;;;;;;;;12.76;63.56;101991.20;110461;1268;22924;-51
2023/04/10 01:09:16;;;;;;;;;;;;;;;12.76;63.57;101991.89;110407;1276;22410;-49
2023/04/10 01:11:49;;;;;;;;;;;;;;;12.76;63.34;101989.80;110406;1268;22427;-50
2023/04/10 01:14:29;;;;;;;;;;;;;;;12.77;63.13;101989.45;110447;1276;23053;-50
2023/04/10 01:17:03;;;;;;;;;;;;;;;12.73;62.89;101987.05;110448;1276;22447;-49
2023/04/10 01:19:41;;;;;;;;;;;;;;;12.69;62.87;101979.27;110409;1269;22394;-49
2023/04/10 01:22:14;;;;;;;;;;;;;;;12.69;62.76;101976.14;110440;1276;22410;-49
2023/04/10 01:24:55;;;;;;;;;;;;;;;12.68;62.82;101975.45;109994;1276;23160;-49
2023/04/10 01:27:23;;;;;;;;;;;;;;;12.66;62.82;101975.29;109627;1270;1002635;-49
2023/04/10 01:29:52;;;;;;;;;;;;;;;12.64;62.90;101973.74;110420;1268;22436;-50
2023/04/10 01:32:21;;;;;;;;;;;;;;;12.62;62.96;101975.69;110312;1270;22393;-49
2023/04/10 01:34:51;;;;;;;;;;;;;;;12.60;63.17;101975.70;110437;1276;22482;-49
2023/04/10 01:37:21;;;;;;;;;;;;;;;12.58;63.32;101970.33;110489;1268;22410;-49
2023/04/10 01:39:50;;;;;;;;;;;;;;;12.58;63.44;101972.08;110462;1269;22435;-50
2023/04/10 01:42:18;;;;;;;;;;;;;;;12.57;63.55;101970.33;110418;1276;22422;-49
2023/04/10 01:44:47;;;;;;;;;;;;;;;12.57;63.69;101969.80;110454;1268;22453;-50
2023/04/10 01:47:16;;;;;;;;;;;;;;;12.59;63.69;101970.83;110495;1268;22503;-49
2023/04/10 01:49:47;;;;;;;;;;;;;;;12.60;63.69;101970.83;110366;1270;22416;-50
2023/04/10 01:52:15;;;;;;;;;;;;;;;12.62;63.68;101971.67;110388;1269;22465;-49
2023/04/10 01:54:47;;;;;;;;;;;;;;;12.63;63.55;101970.98;110440;1268;23240;-50
2023/04/10 01:57:22;;;;;;;;;;;;;;;12.61;63.39;101965.78;110365;1270;22415;-49
2023/04/10 01:59:57;;;;;;;;;;;;;;;12.55;63.41;101961.30;109626;1276;1002563;-50
2023/04/10 02:02:29;;;;;;;;;;;;;;;12.52;63.42;101959.77;109608;1269;1002988;-49
2023/04/10 02:04:58;;;;;;;;;;;;;;;12.49;63.43;101957.90;110431;1276;22398;-49
2023/04/10 02:07:50;;;;;;;;;;;;;;;12.47;63.39;101951.82;110377;1276;22412;-49
2023/04/10 02:10:42;;;;;;;;;;;;;;;12.46;63.33;101950.10;109651;1268;1002059;-49
2023/04/10 02:13:10;;;;;;;;;;;;;;;12.47;63.47;101953.40;110474;1268;23029;-50
2023/04/10 02:15:40;;;;;;;;;;;;;;;12.48;63.40;101952.34;110371;1276;23078;-49
2023/04/10 02:18:09;;;;;;;;;;;;;;;12.51;63.37;101955.27;110149;1272;22440;-50
2023/04/10 02:20:37;;;;;;;;;;;;;;;12.52;63.19;101955.08;110100;1279;23171;-50
2023/04/10 02:23:06;;;;;;;;;;;;;;;12.52;63.13;101954.38;109415;1279;1002297;-49
2023/04/10 02:25:35;;;;;;;;;;;;;;;12.50;63.14;101958.41;109333;1279;1002510;-49
2023/04/10 02:28:04;;;;;;;;;;;;;;;12.48;63.13;101957.90;110056;1279;22454;-50
2023/04/10 02:30:32;;;;;;;;;;;;;;;12.45;63.18;101956.90;110152;1271;22522;-49
2023/04/10 02:33:00;;;;;;;;;;;;;;;12.43;63.15;101960.75;109893;1276;337906;-49
2023/04/10 02:35:30;;;;;;;;;;;;;;;12.44;63.18;101960.22;110216;1271;22536;-49
2023/04/10 02:37:59;;;;;;;;;;;;;;;12.42;63.35;101963.54;110148;1276;22431;-49
2023/04/10 02:40:29;;;;;;;;;;;;;;;12.42;63.23;101961.80;110187;1272;22436;-49
2023/04/10 02:43:09;;;;;;;;;;;;;;;12.42;63.32;101963.89;109408;1279;1003026;-49
2023/04/10 02:45:37;;;;;;;;;;;;;;;12.41;63.32;101961.80;109947;1271;22459;-50
2023/04/10 02:48:11;;;;;;;;;;;;;;;12.40;63.37;101965.83;110088;1271;23244;-50
2023/04/10 02:50:44;;;;;;;;;;;;;;;12.39;63.26;101968.10;110026;1279;22426;-50
2023/04/10 02:53:14;;;;;;;;;;;;;;;12.38;63.37;101966.38;110428;1268;22410;-49
2023/04/10 02:55:42;;;;;;;;;;;;;;;12.37;63.32;101969.16;109630;1269;1002991;-50
2023/04/10 02:58:10;;;;;;;;;;;;;;;12.36;63.34;101971.61;110445;1270;22392;-50
2023/04/10 03:00:52;;;;;;;;;;;;;;;12.36;63.37;101973.17;110427;1268;22453;-49
2023/04/10 03:03:36;;;;;;;;;;;;;;;12.38;63.43;101970.03;110124;1269;23133;-50
2023/04/10 03:06:07;;;;;;;;;;;;;;;12.38;63.49;101964.96;110118;1272;23294;-50
2023/04/10 03:08:36;;;;;;;;;;;;;;;12.40;63.56;101960.77;110373;1269;22417;-49
2023/04/10 03:11:06;;;;;;;;;;;;;;;12.44;63.38;101963.00;110448;1269;22412;-50
2023/04/10 03:13:43;;;;;;;;;;;;;;;12.45;63.33;101962.46;110471;1268;22408;-50
2023/04/10 03:16:11;;;;;;;;;;;;;;;12.47;63.25;101963.49;110482;1268;23107;-50
2023/04/10 03:18:40;;;;;;;;;;;;;;;12.51;63.18;101964.67;110376;1276;23251;-50
2023/04/10 03:21:09;;;;;;;;;;;;;;;12.54;63.20;101966.71;110474;1269;22417;-50
2023/04/10 03:23:37;;;;;;;;;;;;;;;12.56;63.12;101965.65;109603;1276;1002356;-49
2023/04/10 03:26:06;;;;;;;;;;;;;;;12.57;63.10;101964.08;110457;1276;22403;-50
2023/04/10 03:28:38;;;;;;;;;;;;;;;12.55;62.99;101965.15;110401;1273;23113;-50
2023/04/10 03:31:11;;;;;;;;;;;;;;;12.50;63.01;101962.77;110395;1272;22405;-49
2023/04/10 03:33:40;;;;;;;;;;;;;;;12.44;63.09;101961.26;110414;1270;22412;-49
2023/04/10 03:36:10;;;;;;;;;;;;;;;12.41;63.27;101962.33;110381;1276;23145;-49
2023/04/10 03:38:39;;;;;;;;;;;;;;;12.39;63.29;101965.31;110252;1271;23352;-50
2023/04/10 03:41:10;;;;;;;;;;;;;;;12.35;63.34;101962.06;110367;1270;22395;-49
2023/04/10 03:43:40;;;;;;;;;;;;;;;12.32;63.48;101964.17;110395;1276;22424;-49
2023/04/10 03:46:08;;;;;;;;;;;;;;;12.28;63.57;101967.67;110089;1274;22442;-49
2023/04/10 03:48:40;;;;;;;;;;;;;;;12.26;63.70;101971.36;110376;1270;22411;-50
2023/04/10 03:51:09;;;;;;;;;;;;;;;12.25;63.77;101965.29;110123;1276;22454;-50
2023/04/10 03:53:38;;;;;;;;;;;;;;;12.26;63.86;101964.40;110388;1269;22402;-49
2023/04/10 03:56:09;;;;;;;;;;;;;;;12.28;63.97;101965.44;110150;1268;22438;-50
2023/04/10 03:58:40;;;;;;;;;;;;;;;12.31;63.88;101966.95;110481;1276;22410;-49
2023/04/10 04:01:08;;;;;;;;;;;;;;;12.34;63.82;101969.02;110417;1270;23108;-49
2023/04/10 04:03:51;;;;;;;;;;;;;;;12.36;63.84;101975.26;110416;1270;22398;-49
2023/04/10 04:06:47;;;;;;;;;;;;;;;12.34;63.77;101970.58;110171;1269;22493;-50
2023/04/10 04:09:26;;;;;;;;;;;;;;;12.33;63.75;101971.64;110496;1268;22569;-49
2023/04/10 04:12:19;;;;;;;;;;;;;;;12.31;63.75;101972.36;110484;1269;22423;-50
2023/04/10 04:15:08;;;;;;;;;;;;;;;12.29;63.75;101971.32;109626;1268;1002199;-49
2023/04/10 04:17:53;;;;;;;;;;;;;;;12.27;63.83;101974.14;109346;1276;1002155;-49
2023/04/10 04:20:40;;;;;;;;;;;;;;;12.26;63.86;101973.80;110068;1275;22458;-50
2023/04/10 04:23:36;;;;;;;;;;;;;;;12.28;63.96;101975.88;110262;1276;22455;-50
2023/04/10 04:26:25;;;;;;;;;;;;;;;12.30;63.98;101972.72;110225;1269;23119;-50
2023/04/10 04:29:13;;;;;;;;;;;;;;;12.32;64.05;101973.56;110421;1268;22580;-50
2023/04/10 04:31:47;;;;;;;;;;;;;;;12.31;64.11;101972.35;110392;1269;22435;-49
2023/04/10 04:34:40;;;;;;;;;;;;;;;12.34;63.99;101973.73;110499;1268;22478;-49
2023/04/10 04:37:27;;;;;;;;;;;;;;;12.37;64.03;101975.61;110484;1268;22472;-50
2023/04/10 04:40:15;;;;;;;;;;;;;;;12.39;63.79;101982.89;110486;1276;22428;-50
2023/04/10 04:43:13;;;;;;;;;;;;;;;12.37;63.79;101976.48;110492;1268;23148;-49
2023/04/10 04:45:57;;;;;;;;;;;;;;;12.36;63.73;101979.95;110392;1270;22420;-49
2023/04/10 04:48:50;;;;;;;;;;;;;;;12.38;63.60;101981.52;110431;1268;22515;-50
2023/04/10 04:51:24;;;;;;;;;;;;;;;12.39;63.63;101982.89;110194;1274;22425;-49
2023/04/10 04:54:07;;;;;;;;;;;;;;;12.40;63.60;101983.05;110213;1274;23240;-50
2023/04/10 04:56:41;;;;;;;;;;;;;;;12.39;63.71;101979.73;110491;1269;23171;-50
2023/04/10 04:59:18;;;;;;;;;;;;;;;12.43;63.81;101981.11;110501;1268;22409;-50
2023/04/10 05:02:05;;;;;;;;;;;;;;;12.46;63.75;101980.55;110403;1268;22435;-50
2023/04/10 05:04:52;;;;;;;;;;;;;;;12.46;63.90;101978.83;110462;1273;22400;-49
2023/04/10 05:07:39;;;;;;;;;;;;;;;12.49;63.92;101978.95;110484;1276;22411;-50
2023/04/10 05:10:24;;;;;;;;;;;;;;;12.54;64.02;101980.98;110401;1276;22404;-49
2023/04/10 05:13:12;;;;;;;;;;;;;;;12.58;63.92;101979.55;110153;1276;22428;-50
2023/04/10 05:15:47;;;;;;;;;;;;;;;12.61;63.89;101981.09;110400;1270;22443;-49
2023/04/10 05:18:40;;;;;;;;;;;;;;;12.63;64.01;101987.16;110392;1268;22442;-50
2023/04/10 05:21:38;;;;;;;;;;;;;;;12.63;64.01;101985.77;109419;1276;1003172;-49
2023/04/10 05:24:42;;;;;;;;;;;;;;;12.62;64.15;101984.20;110032;1274;23182;-50
2023/04/10 05:27:23;;;;;;;;;;;;;;;12.67;64.29;101984.69;110406;1268;22457;-49
2023/04/10 05:29:55;;;;;;;;;;;;;;;12.70;64.40;101979.77;110460;1273;22484;-49
2023/04/10 05:33:02;;;;;;;;;;;;;;;12.78;64.29;101981.08;110066;1280;22505;-50
2023/04/10 05:35:39;;;;;;;;;;;;;;;12.82;64.14;101978.59;109926;1280;22445;-49
2023/04/10 05:38:34;;;;;;;;;;;;;;;12.81;63.73;101978.61;110240;1276;23172;-49
2023/04/10 05:41:18;;;;;;;;;;;;;;;12.76;63.76;101976.76;110269;1272;22924;-50
2023/04/10 05:44:04;;;;;;;;;;;;;;;12.73;63.97;101967.20;110398;1270;22436;-49
2023/04/10 05:46:59;;;;;;;;;;;;;;;12.78;64.26;101966.63;110401;1269;22404;-50
2023/04/10 05:49:54;;;;;;;;;;;;;;;12.89;64.21;101964.92;110279;1276;22422;-50
2023/04/10 05:52:41;;;;;;;;;;;;;;;13.01;63.96;101961.64;110495;1276;22477;-49
2023/04/10 05:55:25;;;;;;;;;;;;;;;13.15;63.78;101964.82;110108;1276;23124;-49
2023/04/10 05:58:15;;;;;;;;;;;;;;;13.28;63.54;101960.97;110472;1269;22715;-49
2023/04/10 06:01:15;;;;;;;;;;;;;;;13.45;63.26;101956.73;110228;1276;23433;-49
2023/04/10 06:04:04;;;;;;;;;;;;;;;13.63;62.96;101960.12;110456;1275;23111;-49
2023/04/10 06:06:35;;;;;;;;;;;;;;;13.83;62.78;101961.20;110376;1276;22501;-49
2023/04/10 06:09:04;;;;;;;;;;;;;;;14.11;62.28;101961.41;110544;1268;22480;-49
2023/04/10 06:11:32;;;;;;;;;;;;;;;14.45;61.70;101954.20;110372;1270;23270;-50
2023/04/10 06:14:01;;;;;;;;;;;;;;;14.87;60.39;101955.30;110327;1276;22403;-49
2023/04/10 06:16:35;;;;;;;;;;;;;;;15.20;59.31;101956.34;110232;1273;22441;-48
2023/04/10 06:19:05;;;;;;;;;;;;;;;15.44;58.62;101956.15;110395;1276;22542;-49
2023/04/10 06:21:33;;;;;;;;;;;;;;;15.73;58.02;101957.95;110398;1270;23053;-49
2023/04/10 06:24:03;;;;;;;;;;;;;;;15.99;57.10;101958.01;110415;1270;22434;-49
2023/04/10 06:26:32;;;;;;;;;;;;;;;16.12;56.26;101959.41;110479;1269;23103;-49
2023/04/10 06:29:00;;;;;;;;;;;;;;;16.15;55.79;101963.20;110400;1276;22439;-49
2023/04/10 06:31:29;;;;;;;;;;;;;;;16.09;55.60;101964.91;110383;1270;23212;-48
2023/04/10 06:33:57;;;;;;;;;;;;;;;16.03;55.44;101966.30;110367;1271;23195;-49
2023/04/10 06:36:26;;;;;;;;;;;;;;;15.89;55.37;101964.02;110398;1276;22481;-49
2023/04/10 06:39:01;;;;;;;;;;;;;;;15.75;55.94;101966.30;110389;1269;22407;-49
2023/04/10 06:41:30;;;;;;;;;;;;;;;15.69;56.28;101964.70;110231;1276;22412;-50
2023/04/10 06:44:07;;;;;;;;;;;;;;;15.68;56.41;101967.17;110361;1271;22390;-49
2023/04/10 06:46:35;;;;;;;;;;;;;;;15.66;56.58;101966.87;110524;1268;22408;-49
2023/04/10 06:49:05;;;;;;;;;;;;;;;15.68;56.66;101968.39;110223;1271;22444;-49
2023/04/10 06:51:34;;;;;;;;;;;;;;;15.76;56.81;101966.80;110149;1274;22503;-49
2023/04/10 06:54:02;;;;;;;;;;;;;;;15.89;56.70;101967.68;110212;1271;23085;-49
2023/04/10 06:56:33;;;;;;;;;;;;;;;16.04;56.43;101968.71;110529;1268;22417;-49
2023/04/10 06:59:04;;;;;;;;;;;;;;;16.18;56.17;101965.73;110116;1272;23432;-49
2023/04/10 07:01:32;;;;;;;;;;;;;;;16.32;55.88;101966.44;110509;1276;23100;-49
2023/04/10 07:04:01;;;;;;;;;;;;;;;16.43;55.69;101965.27;110529;1276;22373;-49
2023/04/10 07:06:30;;;;;;;;;;;;;;;16.46;55.34;101967.64;110521;1276;23089;-48
2023/04/10 07:08:58;;;;;;;;;;;;;;;16.43;55.30;101967.00;110524;1276;22410;-48
2023/04/10 07:11:27;;;;;;;;;;;;;;;16.44;55.42;101968.58;110250;1271;22401;-48
2023/04/10 07:13:57;;;;;;;;;;;;;;;16.45;55.61;101968.00;110471;1268;22416;-49
2023/04/10 07:16:26;;;;;;;;;;;;;;;16.49;55.52;101966.88;110564;1268;22480;-48
2023/04/10 07:18:55;;;;;;;;;;;;;;;16.51;55.43;101968.59;110508;1268;22416;-48
2023/04/10 07:21:26;;;;;;;;;;;;;;;16.56;55.70;101970.53;110445;1269;22388;-49
2023/04/10 07:23:56;;;;;;;;;;;;;;;16.72;55.66;101969.91;110497;1276;22476;-48
2023/04/10 07:26:24;;;;;;;;;;;;;;;16.91;55.50;101966.58;110501;1269;22427;-48
2023/04/10 07:28:52;;;;;;;;;;;;;;;17.12;54.90;101962.28;110131;1269;22450;-49
2023/04/10 07:31:22;;;;;;;;;;;;;;;17.32;53.85;101957.63;110488;1274;22440;-48
2023/04/10 07:33:51;;;;;;;;;;;;;;;17.41;53.15;101954.20;110503;1268;23134;-49
2023/04/10 07:36:19;;;;;;;;;;;;;;;17.41;52.67;101953.31;110528;1268;22462;-48
2023/04/10 07:38:48;;;;;;;;;;;;;;;17.35;52.63;101949.11;110553;1262;22420;-48
2023/04/10 07:41:16;;;;;;;;;;;;;;;17.33;52.70;101947.26;110274;1272;22527;-48
2023/04/10 07:43:50;;;;;;;;;;;;;;;17.27;52.59;101951.13;110518;1268;22452;-48
2023/04/10 07:46:19;;;;;;;;;;;;;;;17.17;52.90;101952.46;110524;1273;22396;-49
2023/04/10 07:48:48;;;;;;;;;;;;;;;17.09;53.05;101952.02;110537;1268;22656;-49
2023/04/10 07:51:16;;;;;;;;;;;;;;;16.98;53.03;101954.27;110201;1276;22413;-50
2023/04/10 07:53:44;;;;;;;;;;;;;;;16.85;53.30;101952.18;110507;1276;23187;-48
2023/04/10 07:56:16;;;;;;;;;;;;;;;16.73;53.48;101959.20;110500;1273;22417;-48
2023/04/10 07:58:44;;;;;;;;;;;;;;;16.61;53.76;101959.36;110215;1274;22421;-49
2023/04/10 08:01:13;;;;;;;;;;;;;;;16.54;54.23;101955.19;110499;1268;22412;-48
2023/04/10 08:03:42;;;;;;;;;;;;;;;16.53;54.16;101957.30;110246;1271;22617;-48
2023/04/10 08:06:11;;;;;;;;;;;;;;;16.53;54.19;101958.19;109788;1268;1002361;-48
2023/04/10 08:08:40;;;;;;;;;;;;;;;16.55;54.45;101953.95;110518;1273;22397;-48
2023/04/10 08:11:27;;;;;;;;;;;;;;;16.56;54.44;101957.77;109736;1268;1002861;-49
2023/04/10 08:13:58;;;;;;;;;;;;;;;16.54;54.36;101961.85;110502;1276;22403;-49
2023/04/10 08:16:26;;;;;;;;;;;;;;;16.50;54.37;101959.15;110498;1270;23089;-49
2023/04/10 08:18:57;;;;;;;;;;;;;;;16.47;54.17;101956.40;110196;1276;22410;-49
2023/04/10 08:21:26;;;;;;;;;;;;;;;16.39;54.14;101960.64;110212;1269;22729;-49
2023/04/10 08:23:55;;;;;;;;;;;;;;;16.32;54.28;101956.09;110534;1268;22402;-49
2023/04/10 08:26:24;;;;;;;;;;;;;;;16.16;54.38;101947.40;110518;1268;22408;-49
2023/04/10 08:28:54;;;;;;;;;;;;;;;15.94;54.96;101948.30;110521;1268;22415;-49
2023/04/10 08:31:24;;;;;;;;;;;;;;;15.80;55.22;101943.42;110541;1271;23126;-49
2023/04/10 08:33:52;;;;;;;;;;;;;;;15.69;55.85;101940.54;110497;1269;22405;-50
2023/04/10 08:36:23;;;;;;;;;;;;;;;15.56;56.16;101941.21;110603;1268;22435;-50
2023/04/10 08:38:52;;;;;;;;;;;;;;;15.44;56.83;101939.91;110525;1276;22455;-50
2023/04/10 08:41:20;;;;;;;;;;;;;;;15.36;57.18;101931.52;110516;1276;22397;-49
2023/04/10 08:43:49;;;;;;;;;;;;;;;15.28;57.39;101930.98;110536;1268;23105;-49
2023/04/10 08:46:18;;;;;;;;;;;;;;;15.18;57.83;101938.90;110543;1269;23184;-50
2023/04/10 08:49:00;;;;;;;;;;;;;;;15.11;58.28;101940.98;110558;1276;22444;-49
2023/04/10 08:51:36;;;;;;;;;;;;;;;15.12;58.48;101936.95;110479;1269;22431;-49
2023/04/10 08:54:05;;;;;;;;;;;;;;;15.10;58.66;101932.98;110559;1268;22406;-49
2023/04/10 08:56:39;;;;;;;;;;;;;;;15.11;58.85;101929.62;110507;1268;22422;-49
2023/04/10 08:59:07;;;;;;;;;;;;;;;15.10;58.53;101928.42;110398;1273;22487;-49
2023/04/10 09:01:36;;;;;;;;;;;;;;;14.98;58.79;101927.63;110498;1273;22429;-49
2023/04/10 09:04:04;;;;;;;;;;;;;;;14.94;59.04;101921.09;110050;1276;22429;-49
2023/04/10 09:06:32;;;;;;;;;;;;;;;14.91;58.92;101917.84;110506;1268;22389;-48
2023/04/10 09:09:09;;;;;;;;;;;;;;;14.89;59.30;101918.92;110320;1276;22469;-49
2023/04/10 09:11:54;;;;;;;;;;;;;;;14.90;59.45;101920.46;110519;1268;23107;-48
2023/04/10 09:14:29;;;;;;;;;;;;;;;14.93;59.26;101920.58;110540;1272;22417;-49
2023/04/10 09:17:09;;;;;;;;;;;;;;;14.97;59.00;101921.73;110323;1270;22443;-49
2023/04/10 09:19:38;;;;;;;;;;;;;;;14.94;58.79;101914.08;110501;1270;23260;-49
2023/04/10 09:22:07;;;;;;;;;;;;;;;14.94;59.05;101918.64;110530;1273;22408;-49
2023/04/10 09:24:41;;;;;;;;;;;;;;;14.99;59.16;101911.38;110530;1275;22432;-49
2023/04/10 09:27:10;;;;;;;;;;;;;;;15.05;58.96;101906.33;110465;1275;22437;-49
2023/04/10 09:29:44;;;;;;;;;;;;;;;15.11;59.22;101910.58;110492;1269;22424;-49
2023/04/10 09:32:34;;;;;;;;;;;;;;;15.18;59.31;101916.88;110508;1268;23128;-49
2023/04/10 09:35:03;;;;;;;;;;;;;;;15.26;58.89;101910.23;110518;1268;22421;-50
2023/04/10 09:37:32;;;;;;;;;;;;;;;15.31;58.65;101910.66;110220;1273;22443;-49
2023/04/10 09:54:34;;;;;;;3.60;3.20;;;;;;;14.71;61.07;101908.23;104936;1282;561259;-49
2023/04/10 10:01:48;;;;;;;3.40;3.10;;;;;;;15.62;57.89;101905.91;105427;1287;1003051;-49
2023/04/10 10:04:16;;;;;;;4.00;3.70;;;;;;;15.56;57.81;101901.88;106657;1276;25338;-50
2023/04/10 10:06:43;;;;;;;3.50;3.20;;;;;;;15.49;57.87;101901.17;106528;1273;236443;-49
2023/04/10 10:09:11;;;;;;;3.30;3.10;;;;;;;15.46;57.97;101899.30;106562;1276;22530;-49
2023/04/10 10:11:39;;;;;;;3.10;2.80;;;;;;;15.40;57.70;101895.07;106707;1273;26609;-49
2023/04/10 10:14:11;;;;;;;3.20;2.90;;;;;;;15.22;58.04;101896.15;106703;1278;25408;-49
2023/04/10 10:16:42;;;;;;;3.50;3.20;;;;;;;15.13;58.12;101896.88;106639;1257;25223;-49
2023/04/10 10:19:40;;;;;;;3.10;2.90;;;;;;;15.08;58.40;101899.98;106803;1271;25328;-49
2023/04/10 10:22:08;;;;;;;3.50;3.30;;;;;;;15.06;58.32;101891.98;106627;1270;25338;-50
2023/04/10 10:24:36;;;;;;;3.10;2.90;;;;;;;15.03;58.49;101896.77;106748;1273;25520;-48
2023/04/10 10:27:03;;;;;;;3.00;2.80;;;;;;;15.00;58.76;101898.95;106749;1277;24225;-49
2023/04/10 10:29:31;;;;;;;3.30;3.00;;;;;;;15.00;59.00;101894.21;106849;1270;22531;-49
2023/04/10 10:32:01;;;;;;;3.10;2.80;;;;;;;15.04;59.00;101889.75;106812;1270;25486;-49
2023/04/10 10:34:29;;;;;;;3.50;3.20;;;;;;;15.07;58.91;101887.05;106853;1271;26484;-48
2023/04/10 10:36:57;;;;;;;3.30;3.00;;;;;;;15.10;58.85;101887.34;106837;1273;26623;-49
2023/04/10 10:39:35;;;;;;;3.10;2.90;;;;;;;15.03;58.59;101889.61;106852;1270;25340;-49
2023/04/10 10:42:13;;;;;;;4.40;4.00;;;;;;;14.99;58.75;101891.61;106848;1273;25303;-49
2023/04/10 10:45:09;;;;;;;11.30;8.30;;;;;;;14.91;58.84;101889.17;106822;1276;25312;-49
2023/04/10 10:47:43;;;;;;;10.40;8.00;;;;;;;14.80;59.21;101891.51;106829;1270;25329;-49
2023/04/10 10:50:13;;;;;;;7.80;6.50;;;;;;;14.74;59.64;101891.29;106543;1276;25369;-49
2023/04/10 10:52:48;;;;;;;6.30;5.70;;;;;;;14.70;59.80;101890.48;106735;1274;25334;-49
2023/04/10 10:55:26;;;;;;;5.50;5.00;;;;;;;14.70;60.03;101887.52;106894;1272;22642;-50
2023/04/10 10:57:55;;;;;;;5.00;4.50;;;;;;;14.72;59.99;101885.73;107087;1261;22533;-49
2023/04/10 11:00:24;;;;;;;5.80;5.30;;;;;;;14.68;59.77;101881.27;106570;1273;25525;-49
2023/04/10 11:03:07;;;;;;;5.50;5.00;;;;;;;14.53;59.97;101883.16;107249;1267;26701;-49
2023/04/10 11:05:53;;;;;;;6.00;5.40;;;;;;;14.44;60.24;101880.55;106741;1267;25325;-50
2023/04/10 11:08:32;;;;;;;5.40;4.90;;;;;;;14.39;60.59;101876.45;107038;1266;25576;-49
2023/04/10 11:11:06;;;;;;;5.00;4.60;;;;;;;14.41;60.78;101875.20;107099;1274;25422;-49
2023/04/10 11:13:35;;;;;;;5.80;5.20;;;;;;;14.42;60.68;101874.48;107172;1266;22528;-49
2023/04/10 11:16:04;;;;;;;5.90;5.30;;;;;;;14.42;60.81;101876.39;107122;1261;22622;-49
2023/04/10 11:18:46;;;;;;;5.90;5.40;;;;;;;14.47;60.82;101879.42;107396;1266;25549;-48
2023/04/10 11:21:30;;;;;;;6.40;5.80;;;;;;;14.48;60.87;101869.83;106995;1264;25268;-49
2023/04/10 11:24:02;;;;;;;5.60;5.10;;;;;;;14.54;61.06;101871.79;107269;1260;24362;-49
2023/04/10 11:26:40;;;;;;;5.20;4.70;;;;;;;14.63;60.89;101867.40;107313;1267;25309;-49
2023/04/10 11:29:16;;;;;;;6.50;6.00;;;;;;;14.71;60.71;101866.18;107257;1266;25487;-50
2023/04/10 11:31:57;;;;;;;6.20;5.70;;;;;;;14.80;60.72;101853.61;107293;1268;25352;-49
2023/04/10 11:34:29;;;;;;;7.40;6.70;;;;;;;14.84;60.68;101856.84;107248;1266;25563;-48
2023/04/10 11:36:56;;;;;;;7.00;6.30;;;;;;;14.89;60.67;101849.92;106974;1260;25449;-49
2023/04/10 11:39:25;;;;;;;8.10;7.20;;;;;;;14.96;60.55;101854.14;107168;1267;25398;-49
2023/04/10 11:41:53;;;;;;;8.40;7.70;;;;;;;14.99;60.13;101850.55;107157;1266;24249;-49
2023/04/10 11:44:28;;;;;;;8.80;7.90;;;;;;;15.00;59.99;101855.08;107287;1272;25377;-48
2023/04/10 11:46:56;;;;;;;8.30;7.50;;;;;;;15.05;59.67;101850.77;107184;1267;23453;-49
2023/04/10 11:49:33;;;;;;;9.10;8.20;;;;;;;15.05;59.68;101846.73;106845;1275;25398;-49
2023/04/10 11:52:00;;;;;;;8.20;7.40;;;;;;;15.04;59.41;101838.55;107124;1266;25394;-49
2023/04/10 11:54:28;;;;;;;9.10;8.20;;;;;;;15.00;59.38;101833.59;107054;1270;25410;-49
2023/04/10 11:57:10;;;;;;;9.30;8.40;;;;;;;14.89;59.43;101833.32;107077;1267;25334;-50
2023/04/10 11:59:37;;;;;;;8.70;7.80;;;;;;;14.82;59.91;101826.67;107188;1266;25417;-50
2023/04/10 12:02:06;;;;;;;9.30;8.40;;;;;;;14.84;60.04;101826.10;107177;1267;24018;-50
2023/04/10 12:04:34;;;;;;;8.70;7.90;;;;;;;14.86;60.28;101821.48;107137;1274;25277;-50
2023/04/10 12:07:03;;;;;;;9.20;8.30;;;;;;;14.93;60.00;101821.52;107038;1267;22640;-50
2023/04/10 12:09:31;;;;;;;9.50;8.60;;;;;;;15.00;59.99;101816.45;106777;1274;22520;-51
2023/04/10 12:12:07;;;;;;;9.80;8.70;;;;;;;15.10;59.93;101813.42;106948;1267;25319;-50
2023/04/10 12:14:35;;;;;;;;;;;;;;;15.17;59.77;101803.83;107024;1266;22499;-50
2023/04/10 12:17:03;;;;;;;14.60;9.90;;;;;;;15.24;59.48;101801.18;106685;1274;22520;-49
2023/04/10 12:19:32;;;;;;;11.50;9.80;;;;;;;15.27;59.42;101797.63;106827;1266;24259;-50
2023/04/10 12:22:00;;;;;;;9.90;8.90;;;;;;;15.24;59.10;101797.02;106786;1269;25373;-51
2023/04/10 12:24:46;;;;;;;10.60;9.60;;;;;;;15.17;59.51;101794.20;107198;1266;25337;-50
2023/04/10 12:27:18;;;;;;;9.80;8.70;;;;;;;15.21;59.75;101794.28;107100;1273;22773;-50
2023/04/10 12:29:46;;;;;;;10.20;9.00;;;;;;;15.28;59.64;101793.59;107256;1267;25427;-49
2023/04/10 12:32:13;;;;;;;10.70;9.60;;;;;;;15.33;59.14;101792.40;107199;1251;24261;-50
2023/04/10 12:34:41;;;;;;;11.20;10.00;;;;;;;15.33;58.84;101787.86;107333;1263;25392;-48
2023/04/10 12:37:09;;;;;;;11.50;9.90;;;;;;;15.30;58.82;101785.48;107120;1269;25278;-48
2023/04/10 12:39:37;;;;;;;11.00;9.90;;;;;;;15.30;58.77;101781.46;107155;1274;25343;-50
2023/04/10 12:42:10;;;;;;;11.20;10.00;;;;;;;15.30;58.94;101779.73;107275;1266;22603;-48
2023/04/10 12:44:58;;;;;;;10.30;9.10;;;;;;;15.32;59.11;101777.39;107181;1251;25331;-49
2023/04/10 12:47:28;;;;;;;10.30;9.30;;;;;;;15.39;59.28;101778.80;107159;1260;22546;-49
2023/04/10 12:50:07;;;;;;;11.00;9.90;;;;;;;15.44;58.67;101775.73;107108;1272;22523;-48
2023/04/10 12:52:35;;;;;;;12.20;10.90;;;;;;;15.48;58.50;101768.12;107176;1260;25392;-48
2023/04/10 12:55:23;;;;;;;11.60;10.40;;;;;;;15.50;58.29;101760.52;107082;1269;23864;-48
2023/04/10 12:57:50;;;;;;;11.40;10.20;;;;;;;15.53;58.22;101754.48;107227;1266;25390;-48